createdAt,value
2019-05-03T00:04:36.841Z,12.90
2019-05-03T00:09:42.521Z,12.80
2019-05-03T00:14:48.037Z,12.80
2019-05-03T00:19:52.751Z,13.00
2019-05-03T00:25:07.533Z,13.00
2019-05-03T00:30:02.838Z,13.00
2019-05-03T00:35:12.026Z,13.00
2019-05-03T00:40:32.385Z,13.00
2019-05-03T00:45:36.483Z,13.10
2019-05-03T00:50:42.451Z,13.10
2019-05-03T00:55:45.979Z,13.10
2019-05-03T01:00:49.902Z,13.00
2019-05-03T01:05:53.916Z,13.00
2019-05-03T01:10:57.834Z,12.90
2019-05-03T01:16:03.353Z,12.90
2019-05-03T01:21:07.219Z,12.80
2019-05-03T01:26:11.861Z,12.80
2019-05-03T01:31:15.869Z,12.70
2019-05-03T01:36:22.829Z,12.80
2019-05-03T01:41:26.879Z,12.80
2019-05-03T01:46:31.614Z,12.80
2019-05-03T01:51:41.950Z,12.70
2019-05-03T01:56:56.117Z,12.70
2019-05-03T02:01:55.613Z,12.60
2019-05-03T02:06:59.529Z,12.70
2019-05-03T02:12:03.458Z,12.70
2019-05-03T02:17:07.327Z,12.60
2019-05-03T02:22:12.078Z,12.60
2019-05-03T02:27:16.184Z,12.50
2019-05-03T02:32:23.110Z,12.50
2019-05-03T02:37:25.588Z,12.50
2019-05-03T02:42:29.465Z,12.50
2019-05-03T02:47:35.688Z,12.50
2019-05-03T02:52:39.797Z,12.50
2019-05-03T02:57:46.522Z,12.50
2019-05-03T03:02:49.252Z,12.50
2019-05-03T03:07:55.693Z,12.40
2019-05-03T03:13:01.852Z,12.40
2019-05-03T03:18:07.196Z,12.50
2019-05-03T03:23:17.813Z,12.40
2019-05-03T03:28:21.686Z,12.50
2019-05-03T03:33:28.155Z,12.50
2019-05-03T03:38:31.895Z,12.50
2019-05-03T03:43:36.668Z,12.60
2019-05-03T03:48:41.643Z,12.60
2019-05-03T03:53:46.658Z,12.60
2019-05-03T03:58:52.089Z,12.60
2019-05-03T04:03:56.467Z,12.60
2019-05-03T04:09:00.326Z,12.60
2019-05-03T04:14:05.547Z,12.60
2019-05-03T04:19:11.245Z,12.60
2019-05-03T04:24:16.243Z,12.60
2019-05-03T04:29:20.615Z,12.70
2019-05-03T04:34:26.355Z,12.60
2019-05-03T04:39:30.061Z,12.60
2019-05-03T04:44:35.778Z,12.50
2019-05-03T04:49:39.537Z,12.40
2019-05-03T04:54:45.235Z,12.30
2019-05-03T04:59:49.373Z,12.30
2019-05-03T05:04:55.583Z,12.10
2019-05-03T05:09:58.849Z,11.80
2019-05-03T05:15:05.106Z,11.50
2019-05-03T05:20:15.963Z,11.20
2019-05-03T05:25:25.139Z,11.30
2019-05-03T05:30:29.738Z,11.20
2019-05-03T05:35:35.220Z,11.20
2019-05-03T05:40:39.253Z,11.30
2019-05-03T05:45:44.993Z,11.30
2019-05-03T05:50:48.940Z,11.30
2019-05-03T05:56:00.368Z,11.30
2019-05-03T06:01:21.717Z,11.30
2019-05-03T06:06:45.127Z,11.30
2019-05-03T06:11:50.805Z,11.40
2019-05-03T06:16:56.257Z,11.20
2019-05-03T06:22:07.218Z,11.20
2019-05-03T06:27:15.317Z,11.20
2019-05-03T06:32:26.746Z,11.20
2019-05-03T06:37:32.270Z,11.20
2019-05-03T06:42:36.407Z,11.20
2019-05-03T06:47:45.197Z,11.20
2019-05-03T06:52:46.210Z,11.20
2019-05-03T06:57:50.335Z,11.20
2019-05-03T07:03:08.003Z,11.30
2019-05-03T07:08:19.840Z,11.30
2019-05-03T07:13:25.449Z,11.40
2019-05-03T07:18:29.542Z,11.40
2019-05-03T07:23:34.935Z,11.40
2019-05-03T07:28:47.105Z,11.50
2019-05-03T07:33:44.925Z,11.50
2019-05-03T07:38:48.859Z,11.50
2019-05-03T07:43:54.893Z,11.50
2019-05-03T07:48:58.270Z,11.60
2019-05-03T07:54:02.158Z,11.70
2019-05-03T07:59:07.640Z,11.80
2019-05-03T08:04:15.263Z,11.80
2019-05-03T08:09:18.653Z,11.80
2019-05-03T08:14:22.670Z,11.90
2019-05-03T08:19:27.095Z,12.20
2019-05-03T08:24:31.466Z,12.10
2019-05-03T08:29:35.438Z,12.00
2019-05-03T08:34:41.440Z,12.40
2019-05-03T08:39:47.199Z,12.60
2019-05-03T08:44:55.356Z,12.80
2019-05-03T08:49:58.053Z,12.80
2019-05-03T08:55:01.990Z,13.60
2019-05-03T09:00:09.204Z,14.60
2019-05-03T09:05:15.752Z,15.70
2019-05-03T09:10:35.204Z,15.60
2019-05-03T09:15:41.690Z,15.90
2019-05-03T09:20:46.607Z,16.70
2019-05-03T09:25:50.579Z,17.30
2019-05-03T09:30:56.103Z,17.60
2019-05-03T09:36:00.083Z,17.80
2019-05-03T09:41:05.244Z,18.00
2019-05-03T09:46:09.998Z,18.30
2019-05-03T09:51:15.449Z,18.40
2019-05-03T09:56:21.091Z,18.30
2019-05-03T10:01:25.570Z,18.30
2019-05-03T10:06:29.571Z,18.50
2019-05-03T10:11:35.130Z,18.80
2019-05-03T10:16:40.914Z,19.10
2019-05-03T10:21:46.551Z,18.90
2019-05-03T10:26:50.529Z,18.70
2019-05-03T10:32:20.465Z,18.90
2019-05-03T10:37:30.296Z,19.30
2019-05-03T10:42:46.491Z,19.00
2019-05-03T10:47:50.629Z,19.30
2019-05-03T10:52:56.154Z,19.20
2019-05-03T10:58:07.285Z,18.90
2019-05-03T11:03:15.387Z,19.40
2019-05-03T11:08:19.330Z,19.80
2019-05-03T11:13:26.282Z,19.50
2019-05-03T11:18:28.800Z,20.00
2019-05-03T11:23:34.611Z,20.00
2019-05-03T11:28:38.328Z,20.00
2019-05-03T11:33:43.122Z,19.60
2019-05-03T11:38:47.605Z,19.10
2019-05-03T11:43:52.092Z,18.20
2019-05-03T11:48:56.117Z,17.40
2019-05-03T11:54:01.359Z,17.20
2019-05-03T11:59:05.591Z,17.60
2019-05-03T12:04:09.561Z,18.20
2019-05-03T12:09:15.532Z,18.10
2019-05-03T12:14:19.554Z,17.40
2019-05-03T12:19:30.070Z,16.90
2019-05-03T12:24:29.530Z,16.90
2019-05-03T12:29:35.268Z,16.80
2019-05-03T12:34:39.306Z,17.30
2019-05-03T12:39:43.182Z,17.80
2019-05-03T12:44:47.065Z,18.10
2019-05-03T12:49:50.996Z,18.00
2019-05-03T12:54:55.189Z,18.30
2019-05-03T13:00:00.877Z,18.30
2019-05-03T13:05:05.285Z,18.70
2019-05-03T13:10:09.615Z,18.70
2019-05-03T13:15:16.075Z,18.70
2019-05-03T13:20:20.436Z,18.50
2019-05-03T13:25:25.875Z,17.90
2019-05-03T13:30:30.037Z,17.10
2019-05-03T13:35:35.130Z,17.50
2019-05-03T13:40:39.405Z,17.80
2019-05-03T13:45:44.974Z,17.90
2019-05-03T13:50:49.208Z,18.00
2019-05-03T13:55:55.082Z,18.00
2019-05-03T14:00:58.768Z,17.60
2019-05-03T14:06:07.615Z,17.30
2019-05-03T14:11:09.913Z,16.90
2019-05-03T14:16:14.396Z,16.80
2019-05-03T14:21:34.463Z,16.70
2019-05-03T14:26:38.879Z,17.00
2019-05-03T14:31:42.751Z,17.50
2019-05-03T14:36:47.191Z,17.30
2019-05-03T14:41:51.174Z,17.10
2019-05-03T14:46:59.283Z,16.40
2019-05-03T14:52:05.422Z,16.00
2019-05-03T14:57:10.674Z,15.80
2019-05-03T15:02:24.454Z,15.70
2019-05-03T15:07:29.224Z,15.60
2019-05-03T15:12:35.767Z,15.30
2019-05-03T15:17:38.827Z,15.20
2019-05-03T15:22:42.811Z,15.20
2019-05-03T15:27:48.588Z,15.30
2019-05-03T15:32:57.667Z,15.10
2019-05-03T15:37:57.815Z,15.00
2019-05-03T15:43:05.383Z,15.10
2019-05-03T15:48:16.146Z,15.20
2019-05-03T15:53:20.033Z,15.20
2019-05-03T15:58:26.578Z,15.10
2019-05-03T16:03:30.476Z,15.20
2019-05-03T16:08:34.361Z,15.20
2019-05-03T16:13:38.447Z,15.00
2019-05-03T16:18:42.305Z,14.90
2019-05-03T16:23:46.754Z,14.90
2019-05-03T16:28:52.355Z,14.80
2019-05-03T16:33:56.287Z,14.60
2019-05-03T16:39:00.186Z,14.50
2019-05-03T16:44:04.082Z,14.40
2019-05-03T16:49:07.990Z,14.30
2019-05-03T16:54:11.890Z,14.30
2019-05-03T16:59:17.416Z,14.30
2019-05-03T17:04:26.007Z,14.20
2019-05-03T17:09:38.464Z,14.10
2019-05-03T17:14:43.280Z,14.00
2019-05-03T17:19:47.307Z,14.20
2019-05-03T17:24:58.539Z,14.30
2019-05-03T17:30:04.502Z,14.10
2019-05-03T17:35:10.876Z,13.90
2019-05-03T17:40:16.703Z,13.80
2019-05-03T17:45:22.203Z,13.70
2019-05-03T17:50:26.479Z,13.60
2019-05-03T17:55:35.260Z,13.60
2019-05-03T18:00:49.538Z,13.50
2019-05-03T18:06:04.679Z,13.40
2019-05-03T18:11:10.366Z,13.40
2019-05-03T18:16:14.371Z,13.30
2019-05-03T18:21:18.243Z,13.20
2019-05-03T18:26:22.201Z,13.10
2019-05-03T18:31:26.341Z,13.10
2019-05-03T18:36:32.286Z,13.10
2019-05-03T18:41:35.858Z,12.90
2019-05-03T18:46:47.617Z,12.80
2019-05-03T18:51:55.202Z,12.80
2019-05-03T18:56:58.868Z,12.70
2019-05-03T19:02:05.452Z,12.50
2019-05-03T19:07:11.092Z,12.40
2019-05-03T19:12:16.639Z,12.20
2019-05-03T19:17:35.543Z,12.20
2019-05-03T19:22:39.629Z,12.30
2019-05-03T19:27:45.106Z,12.20
2019-05-03T19:32:50.770Z,12.20
2019-05-03T19:37:55.435Z,12.20
2019-05-03T19:42:59.636Z,12.30
2019-05-03T19:48:03.881Z,12.20
2019-05-03T19:53:12.175Z,12.20
2019-05-03T19:58:16.097Z,12.10
2019-05-03T20:03:36.597Z,12.10
2019-05-03T20:08:42.145Z,11.90
2019-05-03T20:13:46.600Z,11.80
2019-05-03T20:18:50.590Z,11.90
2019-05-03T20:23:55.553Z,11.80
2019-05-03T20:28:59.562Z,11.70
2019-05-03T20:34:05.388Z,11.70
2019-05-03T20:39:10.373Z,11.70
2019-05-03T20:44:18.313Z,11.60
2019-05-03T20:49:22.192Z,11.50
2019-05-03T20:54:26.150Z,11.50
2019-05-03T20:59:42.127Z,11.40
2019-05-03T21:04:35.575Z,11.50
2019-05-03T21:09:39.441Z,11.40
2019-05-03T21:14:46.895Z,11.30
2019-05-03T21:19:52.627Z,11.30
2019-05-03T21:24:58.143Z,11.20
2019-05-03T21:30:02.065Z,11.10
2019-05-03T21:35:07.544Z,11.10
2019-05-03T21:40:11.468Z,11.10
2019-05-03T21:45:17.391Z,11.10
2019-05-03T21:50:22.105Z,11.00
2019-05-03T21:55:26.041Z,11.00
2019-05-03T22:00:42.235Z,10.90
2019-05-03T22:05:54.454Z,10.90
2019-05-03T22:10:51.809Z,10.70
2019-05-03T22:16:06.508Z,10.70
2019-05-03T22:21:21.164Z,10.80
2019-05-03T22:26:44.822Z,10.80
2019-05-03T22:31:49.939Z,10.70
2019-05-03T22:36:54.823Z,10.60
2019-05-03T22:41:59.181Z,10.60
2019-05-03T22:47:03.183Z,10.60
2019-05-03T22:52:07.155Z,10.50
2019-05-03T22:57:11.084Z,10.50
2019-05-03T23:02:16.734Z,10.60
2019-05-03T23:07:20.579Z,10.60
2019-05-03T23:12:24.524Z,10.60
2019-05-03T23:17:28.438Z,10.50
2019-05-03T23:22:34.912Z,10.50
2019-05-03T23:27:38.493Z,10.50
2019-05-03T23:32:42.377Z,10.50
2019-05-03T23:37:46.242Z,10.60
2019-05-03T23:42:50.168Z,10.60
2019-05-03T23:47:54.068Z,10.50
2019-05-03T23:52:57.980Z,10.50
2019-05-03T23:58:01.887Z,10.50
